Time;durP1;ratioP1;P1;durP2;ratioP2;P2;SDS_P1;SDS_P2;PMS_P1;PMS_P2;Temp;Humidity;BMP_temperature;BMP_pressure;BME280_temperature;BME280_humidity;BME280_pressure;Samples;Min_cycle;Max_cycle;Signal;HPM_P1;HPM_P2
2023/03/21 00:01:57;;;;;;;2.50;1.90;;;7.10;99.90;;;;;;5037875;28;20393;-81
2023/03/21 00:04:25;;;;;;;1.80;1.70;;;7.10;99.90;;;;;;5019241;28;20463;-81
2023/03/21 00:06:51;;;;;;;2.55;2.20;;;7.10;99.90;;;;;;5018029;28;20479;-81
2023/03/21 00:09:17;;;;;;;2.30;2.10;;;6.90;99.90;;;;;;5018042;28;20422;-81
2023/03/21 00:11:43;;;;;;;2.97;2.30;;;6.90;99.90;;;;;;5036477;28;20391;-81
2023/03/21 00:14:13;;;;;;;2.65;2.45;;;6.80;99.90;;;;;;5036067;28;20489;-81
2023/03/21 00:16:39;;;;;;;2.92;2.47;;;6.70;99.90;;;;;;5017572;28;20391;-80
2023/03/21 00:19:05;;;;;;;2.00;1.90;;;6.70;99.90;;;;;;5017689;28;20453;-81
2023/03/21 00:21:32;;;;;;;2.40;2.20;;;6.60;99.90;;;;;;5018612;28;20395;-81
2023/03/21 00:23:59;;;;;;;2.15;1.95;;;6.60;99.90;;;;;;5017694;28;20499;-81
2023/03/21 00:26:25;;;;;;;2.30;2.10;;;6.50;99.90;;;;;;5034747;28;20449;-80
2023/03/21 00:28:50;;;;;;;2.28;2.05;;;6.40;99.90;;;;;;5034943;28;20391;-81
2023/03/21 00:31:17;;;;;;;3.03;1.67;;;6.40;99.90;;;;;;5017829;28;20455;-81
2023/03/21 00:33:43;;;;;;;1.70;1.60;;;6.50;99.90;;;;;;5035715;28;20513;-82
2023/03/21 00:36:10;;;;;;;2.90;1.80;;;6.50;99.90;;;;;;5017525;28;20392;-80
2023/03/21 00:38:36;;;;;;;1.60;1.50;;;6.40;99.90;;;;;;5017693;28;20387;-80
2023/03/21 00:41:04;;;;;;;2.25;1.70;;;6.40;99.90;;;;;;5034252;28;20486;-81
2023/03/21 00:43:31;;;;;;;2.20;1.63;;;6.40;99.90;;;;;;5017035;28;20482;-81
2023/03/21 00:45:58;;;;;;;1.90;1.70;;;6.30;99.90;;;;;;5035919;28;20398;-81
2023/03/21 00:48:24;;;;;;;2.78;1.70;;;6.40;99.90;;;;;;5035600;28;20414;-81
2023/03/21 00:50:52;;;;;;;1.60;1.50;;;6.30;99.90;;;;;;5018399;28;20769;-81
2023/03/21 00:53:19;;;;;;;2.33;1.70;;;6.30;99.90;;;;;;5017262;28;20409;-81
2023/03/21 00:55:45;;;;;;;2.88;2.45;;;6.20;99.90;;;;;;5035801;28;20395;-81
2023/03/21 00:58:11;;;;;;;1.65;1.50;;;6.30;99.90;;;;;;5017543;28;20796;-81
2023/03/21 01:00:37;;;;;;;2.00;1.70;;;6.20;99.90;;;;;;5035019;28;20409;-80
2023/03/21 01:03:06;;;;;;;2.00;1.50;;;6.40;99.90;;;;;;5018134;28;20390;-81
2023/03/21 01:08:20;;;;;;;1.70;1.40;;;6.50;99.90;;;;;;5034954;28;20495;-79
2023/03/21 01:10:47;;;;;;;1.38;1.20;;;6.60;99.90;;;;;;5041896;28;20393;-80
2023/03/21 01:13:16;;;;;;;2.08;1.25;;;6.50;99.90;;;;;;5022290;28;20979;-81
2023/03/21 01:15:48;;;;;;;1.70;1.60;;;6.50;99.90;;;;;;5034878;28;20414;-80
2023/03/21 01:18:16;;;;;;;1.90;1.50;;;6.50;99.90;;;;;;5017128;28;20885;-81
2023/03/21 01:20:42;;;;;;;1.42;1.33;;;6.40;99.90;;;;;;5034921;28;20387;-81
2023/03/21 01:23:09;;;;;;;1.88;1.50;;;6.30;99.90;;;;;;5035880;28;20413;-81
2023/03/21 01:25:35;;;;;;;2.28;1.60;;;6.30;99.90;;;;;;5037750;28;20394;-80
2023/03/21 01:28:01;;;;;;;2.00;1.30;;;6.20;99.90;;;;;;5027607;28;20463;-81
2023/03/21 01:30:26;;;;;;;2.60;2.00;;;6.20;99.90;;;;;;5045858;28;20482;-80
2023/03/21 01:32:52;;;;;;;2.40;1.90;;;6.20;99.90;;;;;;5047389;28;20466;-80
2023/03/21 01:35:18;;;;;;;1.80;1.60;;;6.10;99.90;;;;;;5047920;28;20386;-79
2023/03/21 01:37:43;;;;;;;2.20;1.40;;;6.00;99.90;;;;;;5047129;28;20824;-80
2023/03/21 01:40:24;;;;;;;2.17;1.80;;;5.90;99.90;;;;;;5021483;28;20907;-80
2023/03/21 01:42:50;;;;;;;1.70;1.60;;;5.90;99.90;;;;;;5000882;28;20404;-80
2023/03/21 01:45:53;;;;;;;2.53;1.87;;;5.90;99.90;;;;;;5027785;28;20396;-80
2023/03/21 01:48:20;;;;;;;2.10;1.90;;;5.70;99.90;;;;;;5029406;28;20381;-80
2023/03/21 01:50:46;;;;;;;2.25;2.05;;;5.70;99.90;;;;;;5012327;28;20790;-80
2023/03/21 01:53:12;;;;;;;2.10;1.90;;;5.70;99.90;;;;;;5039808;28;20415;-82
2023/03/21 01:55:39;;;;;;;1.83;1.73;;;5.70;99.90;;;;;;5021277;28;20391;-81
2023/03/21 01:58:06;;;;;;;1.73;1.63;;;5.60;99.90;;;;;;5019267;28;20387;-81
2023/03/21 02:00:32;;;;;;;1.63;1.50;;;5.50;99.90;;;;;;5035921;28;20891;-81
2023/03/21 02:03:00;;;;;;;1.80;1.70;;;5.40;99.90;;;;;;5035609;28;20458;-81
2023/03/21 02:05:39;;;;;;;1.88;1.77;;;5.40;99.90;;;;;;5035043;28;20433;-81
2023/03/21 02:08:05;;;;;;;1.80;1.70;;;5.50;99.90;;;;;;5035478;28;20379;-82
2023/03/21 02:10:31;;;;;;;2.30;1.90;;;5.50;99.90;;;;;;5017345;28;20422;-81
2023/03/21 02:13:08;;;;;;;2.05;1.50;;;5.50;99.90;;;;;;5017052;28;20411;-81
2023/03/21 02:15:37;;;;;;;2.28;1.80;;;5.50;99.90;;;;;;5034989;28;20746;-80
2023/03/21 02:18:21;;;;;;;1.90;1.73;;;5.60;99.90;;;;;;5019473;28;20458;-81
2023/03/21 02:21:05;;;;;;;1.90;1.80;;;5.70;99.90;;;;;;5015094;28;20391;-81
2023/03/21 02:23:57;;;;;;;2.97;1.90;;;5.50;99.90;;;;;;5032750;28;20498;-81
2023/03/21 02:26:59;;;;;;;2.00;1.80;;;5.40;99.90;;;;;;5015926;28;20395;-81
2023/03/21 02:29:51;;;;;;;2.67;1.75;;;5.50;99.90;;;;;;4992027;28;20408;-81
2023/03/21 02:32:41;;;;;;;1.53;1.43;;;5.50;99.90;;;;;;5007954;28;20405;-80
2023/03/21 02:35:28;;;;;;;1.40;1.30;;;5.30;99.90;;;;;;5007341;28;20421;-81
2023/03/21 02:38:19;;;;;;;3.00;1.40;;;5.30;99.90;;;;;;5001184;28;20560;-80
2023/03/21 02:41:04;;;;;;;1.70;1.58;;;5.30;99.90;;;;;;5019713;28;20413;-81
2023/03/21 02:43:47;;;;;;;2.00;1.80;;;5.30;99.90;;;;;;5016562;28;20395;-81
2023/03/21 02:46:45;;;;;;;1.50;1.40;;;5.30;99.90;;;;;;5033219;28;20395;-81
2023/03/21 02:49:31;;;;;;;1.53;1.43;;;5.40;99.90;;;;;;5028230;28;20471;-81
2023/03/21 02:51:58;;;;;;;2.90;1.60;;;5.20;99.90;;;;;;5015836;28;20379;-81
2023/03/21 02:54:26;;;;;;;2.80;1.70;;;5.20;99.90;;;;;;5033860;28;20379;-81
2023/03/21 02:56:53;;;;;;;2.53;1.60;;;5.30;99.90;;;;;;5015364;28;20387;-81
2023/03/21 02:59:21;;;;;;;2.53;2.05;;;5.30;99.90;;;;;;5016207;28;20395;-81
2023/03/21 03:01:48;;;;;;;1.40;1.30;;;5.30;99.90;;;;;;5033830;28;20391;-80
2023/03/21 03:04:22;;;;;;;2.70;1.60;;;5.40;99.90;;;;;;5015411;28;20837;-81
2023/03/21 03:06:59;;;;;;;1.55;1.45;;;5.40;99.90;;;;;;5033924;28;20379;-81
2023/03/21 03:09:37;;;;;;;2.00;1.80;;;5.40;99.90;;;;;;5015137;28;20418;-82
2023/03/21 03:12:25;;;;;;;2.85;2.00;;;5.40;99.90;;;;;;5040964;28;20402;-81
2023/03/21 03:15:16;;;;;;;1.73;1.63;;;5.40;99.90;;;;;;5006489;28;20542;-80
2023/03/21 03:17:56;;;;;;;2.22;1.70;;;5.30;99.90;;;;;;4996500;28;20484;-81
2023/03/21 03:20:43;;;;;;;1.88;1.75;;;5.20;99.90;;;;;;4995651;28;20381;-81
2023/03/21 03:23:26;;;;;;;2.50;1.70;;;5.20;99.90;;;;;;4995310;28;20397;-82
2023/03/21 03:25:55;;;;;;;2.28;1.70;;;5.30;99.90;;;;;;5014161;28;20397;-80
2023/03/21 03:28:26;;;;;;;1.75;1.65;;;5.20;99.90;;;;;;5014611;28;20427;-81
2023/03/21 03:30:54;;;;;;;1.48;1.38;;;5.30;99.90;;;;;;5014609;28;20392;-81
2023/03/21 03:33:22;;;;;;;1.80;1.70;;;5.30;99.90;;;;;;5015531;28;20402;-80
2023/03/21 03:35:50;;;;;;;1.77;1.67;;;5.20;99.90;;;;;;5033277;28;20384;-80
2023/03/21 03:38:18;;;;;;;2.00;1.60;;;5.20;99.90;;;;;;5015571;28;20405;-81
2023/03/21 03:40:48;;;;;;;2.38;1.60;;;5.10;99.90;;;;;;5038442;28;20409;-80
2023/03/21 03:43:19;;;;;;;1.70;1.60;;;5.10;99.90;;;;;;5059327;28;20395;-81
2023/03/21 03:46:01;;;;;;;1.92;1.80;;;5.00;99.90;;;;;;5057125;28;20395;-80
2023/03/21 03:48:32;;;;;;;1.90;1.80;;;4.80;99.90;;;;;;5043833;28;20383;-80
2023/03/21 03:51:09;;;;;;;2.60;1.40;;;4.90;99.90;;;;;;5034784;28;20372;-80
2023/03/21 03:53:45;;;;;;;1.60;1.50;;;4.90;99.90;;;;;;5017214;28;20430;-81
2023/03/21 03:56:11;;;;;;;1.38;1.27;;;4.90;99.90;;;;;;5035380;28;20387;-80
2023/03/21 03:58:38;;;;;;;1.75;1.63;;;4.90;99.90;;;;;;5018130;28;20387;-81
2023/03/21 04:01:06;;;;;;;1.80;1.70;;;5.00;99.90;;;;;;5016544;28;20387;-81
2023/03/21 04:03:34;;;;;;;3.28;1.60;;;5.00;99.90;;;;;;5018344;28;20399;-82
2023/03/21 04:05:59;;;;;;;1.70;1.60;;;5.00;99.90;;;;;;5035228;28;20438;-80
2023/03/21 04:08:25;;;;;;;1.50;1.40;;;4.90;99.90;;;;;;5033941;28;20406;-81
2023/03/21 04:10:50;;;;;;;2.03;1.70;;;5.10;99.90;;;;;;5023942;28;20432;-80
2023/03/21 04:13:16;;;;;;;1.60;1.50;;;5.10;99.90;;;;;;5037404;28;20512;-82
2023/03/21 04:15:44;;;;;;;2.30;2.10;;;5.10;99.90;;;;;;5038013;28;20390;-81
2023/03/21 04:18:09;;;;;;;1.50;1.40;;;5.10;99.90;;;;;;5037950;28;20439;-81
2023/03/21 04:20:35;;;;;;;1.60;1.50;;;5.00;99.90;;;;;;5038175;28;20407;-81
2023/03/21 04:23:01;;;;;;;2.05;1.67;;;5.00;99.90;;;;;;5038056;28;20434;-80
2023/03/21 04:25:29;;;;;;;1.80;1.70;;;4.90;99.90;;;;;;5042614;28;20486;-79
2023/03/21 04:27:55;;;;;;;1.70;1.60;;;4.90;99.90;;;;;;5026888;28;20490;-82
2023/03/21 04:30:23;;;;;;;1.70;1.60;;;4.90;99.90;;;;;;5018469;28;20434;-81
2023/03/21 04:32:55;;;;;;;1.60;1.50;;;4.80;99.90;;;;;;5020391;28;20812;-81
2023/03/21 04:35:22;;;;;;;1.98;1.75;;;4.90;99.90;;;;;;5019130;28;20391;-80
2023/03/21 04:37:47;;;;;;;1.90;1.80;;;5.00;99.90;;;;;;5037451;28;20437;-81
2023/03/21 04:40:16;;;;;;;1.63;1.53;;;5.00;99.90;;;;;;5018211;28;20387;-81
2023/03/21 04:42:42;;;;;;;1.50;1.40;;;4.90;99.90;;;;;;5036830;28;20449;-81
2023/03/21 04:45:08;;;;;;;2.08;1.85;;;5.00;99.90;;;;;;5018017;28;20387;-81
2023/03/21 04:47:34;;;;;;;1.90;1.60;;;5.10;99.90;;;;;;5018693;28;20416;-81
2023/03/21 04:49:59;;;;;;;2.70;1.80;;;5.00;99.90;;;;;;5017862;28;20444;-81
2023/03/21 04:52:25;;;;;;;1.70;1.60;;;5.10;99.90;;;;;;5035725;28;20407;-81
2023/03/21 04:54:51;;;;;;;2.00;1.58;;;5.10;99.90;;;;;;5018941;28;20924;-80
2023/03/21 04:57:17;;;;;;;1.70;1.60;;;5.10;99.90;;;;;;5017378;28;20430;-80
2023/03/21 04:59:43;;;;;;;2.22;1.60;;;5.20;99.90;;;;;;5018001;28;20387;-80
2023/03/21 05:02:08;;;;;;;1.60;1.50;;;5.10;99.90;;;;;;5035579;28;20397;-80
2023/03/21 05:04:34;;;;;;;2.30;1.80;;;5.10;99.90;;;;;;5036114;28;20889;-80
2023/03/21 05:06:59;;;;;;;1.88;1.48;;;5.10;99.90;;;;;;5034761;28;20383;-81
2023/03/21 05:09:25;;;;;;;1.80;1.70;;;5.00;99.90;;;;;;5035439;28;20886;-80
2023/03/21 05:11:51;;;;;;;2.10;1.90;;;5.10;99.90;;;;;;5033639;28;20400;-80
2023/03/21 05:14:22;;;;;;;2.67;1.63;;;5.10;99.90;;;;;;5025980;28;20417;-80
2023/03/21 05:16:52;;;;;;;2.42;1.85;;;5.00;99.90;;;;;;5028514;28;20385;-80
2023/03/21 05:19:21;;;;;;;1.70;1.60;;;4.90;99.90;;;;;;5040845;28;20386;-80
2023/03/21 05:21:47;;;;;;;1.90;1.70;;;4.90;99.90;;;;;;5024148;28;20428;-80
2023/03/21 05:24:16;;;;;;;1.88;1.77;;;4.90;99.90;;;;;;5034967;28;20429;-81
2023/03/21 05:26:43;;;;;;;2.30;1.90;;;4.90;99.90;;;;;;5017067;28;20928;-80
2023/03/21 05:29:09;;;;;;;2.10;1.60;;;4.80;99.90;;;;;;5035367;28;20387;-81
2023/03/21 05:31:35;;;;;;;2.10;1.90;;;4.80;99.90;;;;;;5035210;28;20824;-82
2023/03/21 05:34:01;;;;;;;3.40;1.80;;;4.80;99.90;;;;;;5016113;28;20402;-81
2023/03/21 05:36:26;;;;;;;1.90;1.80;;;4.70;99.90;;;;;;5015736;28;20440;-80
2023/03/21 05:38:52;;;;;;;2.20;2.00;;;4.80;99.90;;;;;;5035078;28;20371;-81
2023/03/21 05:41:17;;;;;;;2.00;1.70;;;4.80;99.90;;;;;;5017604;28;20406;-81
2023/03/21 05:43:43;;;;;;;2.20;2.00;;;4.80;99.90;;;;;;5034052;28;20395;-81
2023/03/21 05:46:10;;;;;;;2.03;1.83;;;4.70;99.90;;;;;;5017219;28;20490;-81
2023/03/21 05:48:36;;;;;;;3.20;1.90;;;4.80;99.90;;;;;;5034904;28;20391;-82
2023/03/21 05:51:02;;;;;;;4.10;1.70;;;4.80;99.90;;;;;;5033889;28;20394;-81
2023/03/21 05:53:28;;;;;;;2.00;1.80;;;4.70;99.90;;;;;;5016042;28;20411;-80
2023/03/21 05:55:54;;;;;;;2.63;1.60;;;4.80;99.90;;;;;;5028214;28;20386;-80
2023/03/21 05:58:19;;;;;;;2.42;1.80;;;4.90;99.90;;;;;;5057518;28;20389;-80
2023/03/21 06:00:45;;;;;;;2.60;1.60;;;4.90;99.90;;;;;;5034289;28;20453;-79
2023/03/21 06:03:11;;;;;;;1.60;1.50;;;4.90;99.90;;;;;;5020918;28;20417;-80
2023/03/21 06:05:36;;;;;;;2.10;1.90;;;4.90;99.90;;;;;;5012482;28;20386;-80
2023/03/21 06:08:02;;;;;;;2.25;2.05;;;4.90;99.90;;;;;;5023070;28;20474;-79
2023/03/21 06:10:28;;;;;;;2.20;2.00;;;5.10;99.90;;;;;;5046114;28;20383;-79
2023/03/21 06:12:53;;;;;;;2.40;2.20;;;5.10;99.90;;;;;;5046809;28;20436;-79
2023/03/21 06:15:19;;;;;;;3.10;1.90;;;5.00;99.90;;;;;;5023805;28;20398;-81
2023/03/21 06:17:44;;;;;;;2.20;2.00;;;5.10;99.90;;;;;;5016920;28;20383;-81
2023/03/21 06:20:10;;;;;;;2.65;2.45;;;5.00;99.90;;;;;;5034982;28;20939;-81
2023/03/21 06:22:37;;;;;;;3.10;2.08;;;5.10;99.90;;;;;;5015449;28;20472;-80
2023/03/21 06:25:04;;;;;;;3.20;2.67;;;5.20;99.90;;;;;;5016191;28;20403;-80
2023/03/21 06:27:29;;;;;;;3.08;2.78;;;5.40;99.90;;;;;;5032459;28;20727;-81
2023/03/21 06:29:56;;;;;;;3.40;3.00;;;5.60;99.90;;;;;;5033384;28;20414;-81
2023/03/21 06:32:22;;;;;;;4.82;3.10;;;5.80;99.90;;;;;;5034471;28;20406;-81
2023/03/21 06:34:48;;;;;;;3.72;2.70;;;5.90;99.90;;;;;;5033647;28;20942;-80
2023/03/21 06:37:13;;;;;;;3.70;2.40;;;6.00;99.90;;;;;;5014934;28;20403;-81
2023/03/21 06:39:39;;;;;;;2.42;2.20;;;6.10;99.90;;;;;;5015229;28;20411;-81
2023/03/21 06:42:05;;;;;;;2.63;2.40;;;6.20;99.90;;;;;;5033145;28;20398;-80
2023/03/21 06:44:30;;;;;;;3.20;2.20;;;6.20;99.90;;;;;;5015444;28;20391;-80
2023/03/21 06:46:56;;;;;;;2.20;1.90;;;6.30;99.90;;;;;;5015487;28;20391;-81
2023/03/21 06:49:22;;;;;;;4.13;2.20;;;6.50;99.90;;;;;;5032998;28;20394;-81
2023/03/21 06:51:47;;;;;;;3.03;2.20;;;6.60;99.90;;;;;;5015778;28;20448;-81
2023/03/21 06:54:13;;;;;;;3.13;2.30;;;6.60;99.90;;;;;;5033342;28;20940;-80
2023/03/21 06:56:40;;;;;;;2.20;2.00;;;6.70;99.90;;;;;;5016852;28;20771;-80
2023/03/21 06:59:07;;;;;;;3.08;2.20;;;6.90;99.90;;;;;;5014958;28;20387;-82
2023/03/21 07:01:32;;;;;;;2.90;2.00;;;7.00;99.90;;;;;;5015323;28;20529;-81
2023/03/21 07:03:58;;;;;;;3.50;2.03;;;7.10;99.90;;;;;;5015992;28;20909;-81
2023/03/21 07:06:27;;;;;;;3.00;2.00;;;7.30;99.90;;;;;;5016287;28;20383;-81
2023/03/21 07:08:54;;;;;;;2.70;2.10;;;7.50;99.90;;;;;;5013610;28;20905;-81
2023/03/21 07:11:21;;;;;;;2.40;2.10;;;7.60;99.90;;;;;;5043549;28;20405;-80
2023/03/21 07:13:47;;;;;;;2.05;1.90;;;7.70;99.90;;;;;;5034588;28;20417;-81
2023/03/21 07:16:13;;;;;;;1.80;1.70;;;7.70;99.90;;;;;;5038369;28;20905;-81
2023/03/21 07:18:39;;;;;;;1.80;1.60;;;8.00;99.90;;;;;;5057645;28;20377;-82
2023/03/21 07:21:05;;;;;;;3.70;2.20;;;8.00;99.90;;;;;;5039294;28;20502;-81
2023/03/21 07:23:30;;;;;;;2.10;1.67;;;8.10;99.90;;;;;;5067769;22;20508;-84
2023/03/21 07:25:56;;;;;;;4.10;1.73;;;8.20;99.90;;;;;;5021678;28;20746;-84
2023/03/21 07:28:22;;;;;;;2.10;1.50;;;8.30;99.90;;;;;;5022615;28;20460;-84
2023/03/21 07:30:57;;;;;;;2.03;1.70;;;8.40;99.90;;;;;;5040425;28;20941;-84
2023/03/21 07:33:24;;;;;;;1.80;1.60;;;8.40;99.90;;;;;;5043168;28;20407;-82
2023/03/21 07:35:50;;;;;;;2.60;1.67;;;8.80;99.90;;;;;;5006592;28;20401;-84
2023/03/21 07:38:17;;;;;;;2.33;1.85;;;8.90;39.90;;;;;;5000412;28;20395;-82
2023/03/21 07:40:44;;;;;;;2.17;1.80;;;9.00;40.00;;;;;;5000698;28;20405;-84
2023/03/21 07:43:09;;;;;;;3.80;1.50;;;9.10;81.40;;;;;;4984173;28;20480;-84
2023/03/21 07:45:35;;;;;;;2.10;1.90;;;9.40;1.00;;;;;;5000549;28;20389;-83
2023/03/21 07:48:01;;;;;;;1.80;1.70;;;9.40;1.00;;;;;;5000289;28;20422;-83
2023/03/21 07:50:26;;;;;;;1.77;1.58;;;9.50;1.00;;;;;;4982805;28;20453;-82
2023/03/21 07:52:52;;;;;;;1.60;1.50;;;9.70;1.00;;;;;;4993511;28;20490;-84
2023/03/21 07:55:18;;;;;;;1.80;1.70;;;9.90;1.00;;;;;;5002370;28;20400;-84
2023/03/21 07:57:43;;;;;;;2.10;1.80;;;10.00;1.00;;;;;;4988796;28;20398;-84
2023/03/21 08:00:10;;;;;;;2.60;2.00;;;10.10;1.00;;;;;;5000551;28;20456;-84
2023/03/21 08:02:36;;;;;;;1.87;1.67;;;10.30;1.00;;;;;;5000034;28;20454;-84
2023/03/21 08:05:02;;;;;;;2.80;1.70;;;10.40;1.00;;;;;;4998549;28;20425;-84
2023/03/21 08:07:29;;;;;;;3.35;1.20;;;10.50;99.90;;;;;;4981548;28;20405;-84
2023/03/21 08:09:55;;;;;;;2.30;1.50;;;10.50;99.90;;;;;;4982877;28;20413;-83
2023/03/21 08:12:20;;;;;;;1.80;1.50;;;10.60;97.20;;;;;;5001612;28;20433;-84
2023/03/21 08:14:46;;;;;;;2.30;1.73;;;10.60;1.00;;;;;;5019954;28;20915;-84
2023/03/21 08:17:12;;;;;;;3.10;1.63;;;10.50;1.00;;;;;;5015113;28;20788;-83
2023/03/21 08:19:37;;;;;;;1.80;1.70;;;10.60;1.00;;;;;;5015933;28;20385;-83
2023/03/21 08:22:04;;;;;;;1.70;1.60;;;10.70;59.90;;;;;;4998562;28;20381;-84
2023/03/21 08:24:30;;;;;;;3.15;2.40;;;10.80;1.00;;;;;;5017784;28;20403;-84
2023/03/21 08:26:56;;;;;;;2.90;2.60;;;10.80;99.90;;;;;;4999443;28;20751;-84
2023/03/21 08:29:21;;;;;;;3.40;2.60;;;11.00;1.00;;;;;;4992077;28;20404;-83
2023/03/21 08:31:47;;;;;;;3.25;2.95;;;11.00;1.00;;;;;;5006487;28;20414;-83
2023/03/21 08:34:13;;;;;;;2.78;2.58;;;10.80;1.00;;;;;;5000629;28;20417;-84
2023/03/21 08:36:38;;;;;;;6.80;2.90;;;10.80;1.00;;;;;;4999959;28;20397;-84
2023/03/21 08:39:05;;;;;;;3.30;2.90;;;10.80;1.00;;;;;;5000132;28;20400;-83
2023/03/21 08:41:31;;;;;;;4.28;2.92;;;10.80;1.00;;;;;;5017345;28;20409;-83
2023/03/21 08:43:57;;;;;;;3.45;2.95;;;11.00;1.00;;;;;;5004348;28;20968;-84
2023/03/21 08:46:22;;;;;;;3.22;2.50;;;11.20;1.00;;;;;;5011100;28;20418;-84
2023/03/21 08:48:48;;;;;;;2.90;2.60;;;11.30;99.90;;;;;;5014885;28;20402;-82
2023/03/21 08:51:14;;;;;;;2.60;2.40;;;11.10;99.90;;;;;;4983799;28;20448;-84
2023/03/21 08:53:40;;;;;;;3.30;2.83;;;11.10;99.90;;;;;;5017966;28;20436;-84
2023/03/21 08:56:06;;;;;;;3.97;2.85;;;11.10;99.90;;;;;;5009575;28;20382;-83
2023/03/21 08:58:32;;;;;;;4.05;2.97;;;11.20;53.50;;;;;;5029848;28;20397;-83
2023/03/21 09:00:58;;;;;;;3.30;2.70;;;11.30;99.90;;;;;;5013138;28;20436;-82
2023/03/21 09:03:26;;;;;;;4.50;2.30;;;11.20;1.00;;;;;;5005669;28;20419;-83
2023/03/21 09:05:55;;;;;;;5.00;2.78;;;11.40;99.90;;;;;;5001313;28;20400;-84
2023/03/21 09:08:22;;;;;;;3.80;2.50;;;11.40;99.90;;;;;;5001271;28;20480;-84
2023/03/21 09:10:49;;;;;;;3.42;2.60;;;11.50;99.90;;;;;;5001594;28;20399;-84
2023/03/21 09:13:14;;;;;;;2.50;2.30;;;11.50;1.00;;;;;;5000743;28;20409;-83
2023/03/21 09:15:40;;;;;;;4.88;2.45;;;11.50;1.00;;;;;;4988924;28;20535;-84
2023/03/21 09:18:16;;;;;;;3.20;2.17;;;11.30;99.90;;;;;;4980825;28;20383;-83
2023/03/21 09:20:45;;;;;;;3.03;2.40;;;11.50;99.90;;;;;;4999134;28;20390;-84
2023/03/21 09:23:12;;;;;;;4.22;2.40;;;11.60;1.00;;;;;;4996509;28;20394;-83
2023/03/21 09:25:38;;;;;;;2.40;2.13;;;11.60;1.00;;;;;;4979001;28;20395;-83
2023/03/21 09:28:04;;;;;;;1.90;1.80;;;11.60;99.90;;;;;;5012097;28;20394;-83
2023/03/21 09:30:32;;;;;;;2.92;1.73;;;11.70;1.00;;;;;;5001000;28;20928;-84
2023/03/21 09:33:00;;;;;;;2.25;2.05;;;11.90;1.00;;;;;;5000065;28;20417;-83
2023/03/21 09:35:27;;;;;;;2.17;1.90;;;12.10;1.00;;;;;;4997137;28;20382;-84
2023/03/21 09:37:53;;;;;;;4.65;2.00;;;12.20;1.00;;;;;;4980584;28;20383;-84
2023/03/21 09:40:40;;;;;;;4.20;1.90;;;12.10;99.90;;;;;;4980033;28;20402;-84
2023/03/21 09:43:33;;;;;;;2.55;2.35;;;12.40;74.10;;;;;;5014118;28;20500;-84
2023/03/21 09:46:23;;;;;;;3.40;1.80;;;12.30;99.90;;;;;;5011272;28;20424;-83
2023/03/21 09:49:08;;;;;;;2.00;1.70;;;12.20;99.90;;;;;;5018337;28;20391;-83
2023/03/21 09:51:44;;;;;;;3.00;1.90;;;12.40;99.90;;;;;;4996568;28;20409;-84
2023/03/21 09:54:31;;;;;;;1.83;1.73;;;12.50;14.80;;;;;;5006881;28;20499;-83
2023/03/21 09:57:02;;;;;;;1.95;1.80;;;12.70;1.00;;;;;;5005091;28;20389;-83
2023/03/21 09:59:36;;;;;;;4.70;1.70;;;12.70;99.90;;;;;;5036062;28;20391;-83
2023/03/21 10:02:31;;;;;;;2.05;1.85;;;12.90;99.90;;;;;;5036849;28;20381;-82
2023/03/21 10:04:59;;;;;;;2.22;1.80;;;13.20;1.00;;;;;;5012067;28;20440;-82
2023/03/21 10:07:27;;;;;;;2.38;2.08;;;13.10;1.00;;;;;;5017150;28;20410;-82
2023/03/21 10:09:54;;;;;;;1.90;1.80;;;13.30;1.00;;;;;;5008713;28;20397;-82
2023/03/21 10:12:21;;;;;;;2.60;2.00;;;13.50;99.90;;;;;;5035708;28;20408;-84
2023/03/21 10:14:52;;;;;;;3.50;2.20;;;13.10;1.00;;;;;;5003434;28;20431;-84
2023/03/21 10:17:43;;;;;;;3.00;2.53;;;13.00;1.00;;;;;;5018285;28;20389;-85
2023/03/21 10:20:31;;;;;;;2.10;1.90;;;13.30;1.00;;;;;;5003959;28;20401;-84
2023/03/21 10:23:00;;;;;;;3.17;2.30;;;13.30;1.00;;;;;;5001062;28;20767;-85
2023/03/21 10:25:33;;;;;;;3.75;2.45;;;13.30;1.00;;;;;;5000710;28;20407;-85
2023/03/21 10:28:00;;;;;;;4.00;2.40;;;13.10;1.00;;;;;;5017489;28;20391;-84
2023/03/21 10:30:38;;;;;;;3.92;2.50;;;13.30;1.00;;;;;;5000520;28;20439;-85
2023/03/21 10:33:08;;;;;;;2.50;2.30;;;13.30;1.00;;;;;;4985424;28;20853;-84
2023/03/21 10:35:36;;;;;;;2.80;2.20;;;13.50;99.90;;;;;;4980878;28;20840;-85
2023/03/21 10:38:04;;;;;;;2.65;2.10;;;13.60;99.90;;;;;;4986814;28;20775;-84
2023/03/21 10:40:29;;;;;;;2.30;2.00;;;13.70;99.90;;;;;;5000191;28;20389;-84
2023/03/21 10:42:56;;;;;;;2.05;1.92;;;13.70;99.90;;;;;;4999543;28;20508;-85
2023/03/21 10:45:23;;;;;;;2.22;2.00;;;13.70;99.90;;;;;;4998792;28;20409;-85
2023/03/21 10:47:50;;;;;;;4.53;2.10;;;13.70;99.90;;;;;;4997406;28;20382;-85
2023/03/21 10:50:25;;;;;;;3.17;2.00;;;13.80;99.90;;;;;;5002401;28;20590;-84
2023/03/21 10:52:54;;;;;;;4.85;2.17;;;14.00;57.00;;;;;;4985879;28;20415;-84
2023/03/21 10:55:23;;;;;;;3.20;2.03;;;14.20;1.00;;;;;;5004827;28;20399;-83
2023/03/21 10:57:56;;;;;;;3.20;2.00;;;14.10;1.00;;;;;;4991089;28;20410;-83
2023/03/21 11:00:27;;;;;;;2.13;1.70;;;14.40;1.00;;;;;;5003328;28;20402;-82
2023/03/21 11:02:53;;;;;;;2.60;2.10;;;14.90;1.00;;;;;;5013497;28;20409;-85
2023/03/21 11:05:45;;;;;;;2.20;1.90;;;15.00;1.00;;;;;;5003287;28;20388;-84
2023/03/21 11:08:16;;;;;;;2.30;2.10;;;14.70;1.00;;;;;;4990862;28;20392;-85
2023/03/21 11:10:53;;;;;;;2.88;2.00;;;15.00;1.00;;;;;;5004720;28;20392;-84
2023/03/21 11:13:32;;;;;;;2.30;2.10;;;15.50;1.00;;;;;;5005175;28;20408;-84
2023/03/21 11:16:10;;;;;;;3.80;2.20;;;15.60;1.00;;;;;;5004027;28;20520;-84
2023/03/21 11:18:42;;;;;;;2.67;1.98;;;15.90;1.00;;;;;;5002319;28;20393;-84
2023/03/21 11:21:11;;;;;;;2.40;2.20;;;15.90;1.00;;;;;;4989670;28;20398;-84
2023/03/21 11:23:46;;;;;;;2.40;2.20;;;15.90;1.00;;;;;;4984437;28;20481;-84
2023/03/21 11:26:23;;;;;;;2.40;2.20;;;16.00;1.00;;;;;;5000780;28;20394;-84
2023/03/21 11:28:50;;;;;;;2.78;2.47;;;15.90;1.00;;;;;;5002145;28;20390;-84
2023/03/21 11:31:16;;;;;;;2.92;2.30;;;16.50;99.90;;;;;;4990392;28;20408;-84
2023/03/21 11:33:50;;;;;;;2.33;2.13;;;16.50;99.90;;;;;;5004615;28;20405;-84
2023/03/21 11:36:18;;;;;;;2.30;2.10;;;16.80;99.90;;;;;;5023514;28;20433;-84
2023/03/21 11:38:50;;;;;;;2.83;2.50;;;17.00;99.90;;;;;;5004924;28;20381;-84
2023/03/21 11:41:30;;;;;;;2.65;2.40;;;17.00;99.90;;;;;;5004394;28;20388;-85
2023/03/21 11:43:57;;;;;;;2.80;2.40;;;16.80;99.90;;;;;;5005255;28;20420;-85
2023/03/21 11:46:25;;;;;;;2.40;2.10;;;17.90;99.90;;;;;;5004666;28;20497;-84
2023/03/21 11:48:51;;;;;;;2.83;2.33;;;18.50;99.90;;;;;;4986373;28;20429;-85
2023/03/21 11:51:20;;;;;;;2.60;2.30;;;17.70;99.90;;;;;;5002349;28;20444;-85
2023/03/21 11:53:59;;;;;;;3.00;2.60;;;17.90;99.90;;;;;;5017004;28;20874;-83
2023/03/21 11:56:27;;;;;;;2.40;2.20;;;18.30;99.90;;;;;;4985739;28;20413;-84
2023/03/21 11:59:23;;;;;;;2.53;2.33;;;18.10;99.90;;;;;;5009752;28;20487;-84
2023/03/21 12:02:19;;;;;;;3.60;2.53;;;17.80;99.90;;;;;;5019879;28;20462;-84
2023/03/21 12:05:02;;;;;;;2.63;2.43;;;17.10;99.90;;;;;;5020678;28;20901;-84
2023/03/21 12:08:01;;;;;;;2.67;2.30;;;16.80;99.90;;;;;;5000901;28;20900;-84
2023/03/21 12:10:42;;;;;;;2.80;2.50;;;16.80;99.90;;;;;;5017869;28;20423;-83
2023/03/21 12:13:29;;;;;;;4.30;2.70;;;16.90;99.90;;;;;;4999979;28;20409;-84
2023/03/21 12:16:27;;;;;;;2.70;2.50;;;16.90;99.90;;;;;;4994301;28;20433;-84
2023/03/21 12:19:08;;;;;;;2.60;2.40;;;17.30;99.90;;;;;;4981508;28;20900;-84
2023/03/21 12:21:38;;;;;;;3.17;2.70;;;17.00;99.90;;;;;;5014441;28;20399;-84
2023/03/21 12:24:25;;;;;;;2.90;2.70;;;16.90;99.90;;;;;;4997901;28;20408;-84
2023/03/21 12:27:05;;;;;;;4.10;2.90;;;16.80;99.90;;;;;;4981372;28;20382;-83
2023/03/21 12:29:55;;;;;;;3.03;2.30;;;17.20;99.90;;;;;;5019060;28;20447;-84
2023/03/21 12:32:37;;;;;;;4.10;2.10;;;17.70;99.90;;;;;;4999630;28;20420;-83
2023/03/21 12:35:29;;;;;;;2.47;2.27;;;17.50;99.90;;;;;;4998749;28;20822;-84
2023/03/21 12:38:19;;;;;;;2.00;1.80;;;17.50;99.90;;;;;;4999723;28;20380;-83
2023/03/21 12:41:01;;;;;;;3.20;2.20;;;17.30;99.90;;;;;;4998548;28;20396;-84
2023/03/21 12:43:50;;;;;;;1.90;1.80;;;17.80;99.90;;;;;;5001009;28;20401;-84
2023/03/21 12:46:26;;;;;;;3.63;1.90;;;17.90;99.90;;;;;;4994858;28;20488;-85
2023/03/21 12:49:01;;;;;;;2.75;2.20;;;18.00;99.90;;;;;;5017534;28;20389;-83
2023/03/21 12:51:35;;;;;;;1.90;1.70;;;17.20;99.90;;;;;;5001735;28;20569;-85
2023/03/21 12:54:03;;;;;;;1.80;1.45;;;17.10;99.90;;;;;;4987534;28;20446;-84
2023/03/21 12:56:56;;;;;;;1.60;1.30;;;17.30;99.90;;;;;;5016555;28;20933;-83
2023/03/21 12:59:48;;;;;;;1.30;0.80;;;17.40;99.90;;;;;;5022690;28;20392;-81
2023/03/21 13:02:30;;;;;;;0.70;0.60;;;17.90;99.90;;;;;;5037351;28;20377;-81
2023/03/21 13:05:17;;;;;;;1.50;0.70;;;18.40;99.90;;;;;;5020874;28;20469;-81
2023/03/21 13:07:47;;;;;;;1.00;0.80;;;18.40;99.90;;;;;;5019491;28;20434;-83
2023/03/21 13:10:16;;;;;;;1.00;0.55;;;18.90;99.90;;;;;;5001086;28;20462;-84
2023/03/21 13:13:25;;;;;;;0.80;0.50;;;19.00;75.90;;;;;;4998109;28;20412;-84
2023/03/21 13:15:54;;;;;;;0.80;0.60;;;18.60;81.00;;;;;;4998098;28;20413;-82
2023/03/21 13:18:37;;;;;;;1.30;0.70;;;18.30;61.90;;;;;;4999314;28;20385;-84